createdAt,value
2023-02-01T00:00:54.085Z,2.94
2023-02-01T00:03:20.601Z,3.09
2023-02-01T00:05:55.731Z,3.02
2023-02-01T00:08:22.153Z,2.95
2023-02-01T00:10:48.552Z,3.03
2023-02-01T00:13:14.972Z,3.00
2023-02-01T00:15:41.439Z,2.95
2023-02-01T00:18:07.812Z,3.09
2023-02-01T00:20:34.243Z,3.17
2023-02-01T00:23:00.605Z,3.02
2023-02-01T00:25:26.995Z,3.00
2023-02-01T00:27:53.410Z,3.13
2023-02-01T00:30:20.344Z,3.17
2023-02-01T00:32:46.920Z,3.14
2023-02-01T00:35:13.336Z,3.09
2023-02-01T00:37:39.735Z,3.25
2023-02-01T00:40:06.402Z,3.33
2023-02-01T00:42:32.794Z,3.15
2023-02-01T00:44:59.146Z,3.23
2023-02-01T00:47:25.806Z,3.31
2023-02-01T00:49:52.517Z,3.15
2023-02-01T00:52:18.900Z,3.24
2023-02-01T00:54:45.305Z,3.06
2023-02-01T00:57:11.935Z,3.06
2023-02-01T00:59:38.381Z,3.08
2023-02-01T01:02:04.880Z,3.11
2023-02-01T01:04:31.304Z,3.07
2023-02-01T01:06:57.730Z,3.24
2023-02-01T01:09:24.089Z,3.24
2023-02-01T01:11:52.349Z,3.18
2023-02-01T01:14:18.827Z,3.19
2023-02-01T01:16:45.313Z,3.07
2023-02-01T01:19:13.021Z,3.24
2023-02-01T01:21:39.425Z,3.09
2023-02-01T01:24:06.073Z,3.25
2023-02-01T01:26:32.566Z,3.30
2023-02-01T01:28:59.871Z,3.33
2023-02-01T01:31:26.458Z,3.41
2023-02-01T01:33:53.987Z,3.34
2023-02-01T01:36:21.020Z,3.33
2023-02-01T01:38:47.798Z,3.28
2023-02-01T01:41:15.967Z,3.31
2023-02-01T01:44:00.358Z,3.30
2023-02-01T01:46:32.794Z,3.26
2023-02-01T01:49:08.948Z,3.43
2023-02-01T01:51:38.647Z,3.35
2023-02-01T01:54:09.459Z,3.55
2023-02-01T01:56:36.431Z,3.38
2023-02-01T01:59:04.377Z,3.52
2023-02-01T02:01:30.949Z,3.60
2023-02-01T02:03:57.763Z,3.46
2023-02-01T02:06:39.639Z,3.60
2023-02-01T02:09:07.095Z,3.40
2023-02-01T02:11:33.784Z,3.37
2023-02-01T02:14:00.536Z,3.38
2023-02-01T02:16:42.347Z,3.47
2023-02-01T02:23:02.013Z,3.44
2023-02-01T02:25:47.415Z,3.49
2023-02-01T02:28:26.079Z,3.67
2023-02-01T02:31:04.777Z,3.65
2023-02-01T02:33:31.267Z,3.70
2023-02-01T02:36:02.717Z,3.72
2023-02-01T02:38:37.553Z,3.61
2023-02-01T02:41:13.201Z,3.72
2023-02-01T02:44:08.140Z,3.61
2023-02-01T02:46:56.837Z,3.57
2023-02-01T02:49:23.598Z,3.70
2023-02-01T02:52:12.207Z,3.37
2023-02-01T02:54:48.321Z,3.37
2023-02-01T02:57:39.937Z,3.46
2023-02-01T03:00:28.190Z,3.52
2023-02-01T03:03:13.862Z,3.36
2023-02-01T03:05:45.343Z,3.44
2023-02-01T03:08:12.947Z,3.45
2023-02-01T03:10:58.551Z,3.41
2023-02-01T03:13:39.571Z,3.62
2023-02-01T03:16:06.139Z,3.59
2023-02-01T03:18:45.601Z,3.57
2023-02-01T03:21:15.074Z,3.64
2023-02-01T03:23:43.843Z,3.57
2023-02-01T03:26:12.442Z,3.65
2023-02-01T03:28:43.023Z,3.74
2023-02-01T03:31:09.642Z,3.66
2023-02-01T03:33:36.312Z,3.73
2023-02-01T03:36:19.527Z,3.76
2023-02-01T03:38:52.069Z,3.63
2023-02-01T03:41:26.294Z,3.54
2023-02-01T03:43:58.891Z,3.38
2023-02-01T03:46:33.990Z,3.51
2023-02-01T03:49:03.247Z,3.34
2023-02-01T03:51:31.250Z,3.38
2023-02-01T03:53:58.187Z,3.36
2023-02-01T03:56:27.350Z,3.48
2023-02-01T03:59:00.134Z,3.23
2023-02-01T04:01:31.780Z,3.18
2023-02-01T04:03:58.925Z,3.20
2023-02-01T04:06:25.733Z,3.37
2023-02-01T04:08:54.384Z,3.19
2023-02-01T04:11:20.832Z,3.16
2023-02-01T04:13:47.260Z,3.13
2023-02-01T04:16:14.285Z,3.17
2023-02-01T04:18:40.797Z,3.16
2023-02-01T04:21:07.593Z,3.20
2023-02-01T04:23:34.020Z,3.10
2023-02-01T04:26:01.584Z,3.11
2023-02-01T04:28:28.160Z,3.07
2023-02-01T04:30:54.722Z,3.10
2023-02-01T04:33:21.351Z,3.28
2023-02-01T04:35:48.225Z,3.18
2023-02-01T04:38:14.669Z,3.05
2023-02-01T04:40:41.114Z,3.19
2023-02-01T04:43:07.539Z,3.30
2023-02-01T04:45:33.984Z,3.33
2023-02-01T04:48:00.550Z,3.11
2023-02-01T04:50:27.031Z,3.17
2023-02-01T04:52:53.605Z,3.02
2023-02-01T04:55:20.563Z,3.36
2023-02-01T04:57:47.261Z,3.24
2023-02-01T05:00:14.186Z,3.25
2023-02-01T05:02:41.089Z,3.05
2023-02-01T05:05:07.679Z,3.21
2023-02-01T05:07:34.152Z,3.21
2023-02-01T05:10:00.603Z,3.17
2023-02-01T05:12:45.744Z,3.09
2023-02-01T05:15:12.176Z,3.17
2023-02-01T05:17:41.038Z,3.19
2023-02-01T05:20:08.336Z,3.15
2023-02-01T05:22:34.802Z,3.11
2023-02-01T05:25:01.250Z,3.08
2023-02-01T05:27:29.682Z,3.13
2023-02-01T05:29:56.120Z,3.36
2023-02-01T05:32:23.370Z,3.29
2023-02-01T05:34:50.269Z,3.14
2023-02-01T05:37:16.799Z,3.28
2023-02-01T05:39:43.240Z,3.23
2023-02-01T05:42:09.698Z,3.36
2023-02-01T05:44:36.163Z,3.37
2023-02-01T05:47:02.620Z,3.36
2023-02-01T05:49:29.058Z,3.35
2023-02-01T05:51:55.523Z,3.31
2023-02-01T05:54:22.018Z,3.47
2023-02-01T05:56:48.603Z,3.50
2023-02-01T05:59:15.026Z,3.47
2023-02-01T06:01:41.544Z,3.38
2023-02-01T06:04:08.272Z,3.55
2023-02-01T06:06:35.140Z,3.46
2023-02-01T06:09:01.863Z,3.28
2023-02-01T06:11:33.118Z,3.31
2023-02-01T06:14:00.161Z,3.32
2023-02-01T06:16:27.110Z,3.38
2023-02-01T06:18:53.826Z,3.44
2023-02-01T06:21:24.726Z,3.41
2023-02-01T06:23:55.152Z,3.34
2023-02-01T06:26:21.748Z,3.58
2023-02-01T06:28:48.487Z,3.54
2023-02-01T06:31:15.125Z,3.54
2023-02-01T06:33:42.527Z,3.54
2023-02-01T06:36:10.643Z,3.47
2023-02-01T06:38:37.154Z,3.53
2023-02-01T06:41:04.436Z,3.37
2023-02-01T06:43:31.608Z,3.33
2023-02-01T06:46:02.269Z,3.42
2023-02-01T06:48:28.716Z,3.39
2023-02-01T06:50:55.561Z,3.40
2023-02-01T06:53:22.374Z,3.50
2023-02-01T06:55:59.138Z,3.47
2023-02-01T06:58:28.529Z,3.56
2023-02-01T07:00:55.132Z,3.68
2023-02-01T07:03:21.711Z,3.48
2023-02-01T07:05:48.699Z,3.58
2023-02-01T07:08:15.298Z,3.45
2023-02-01T07:10:41.826Z,3.41
2023-02-01T07:13:08.391Z,3.34
2023-02-01T07:15:35.054Z,3.45
2023-02-01T07:18:01.953Z,3.55
2023-02-01T07:20:28.461Z,3.42
2023-02-01T07:22:58.291Z,3.40
2023-02-01T07:25:24.860Z,3.34
2023-02-01T07:27:51.400Z,3.36
2023-02-01T07:30:18.045Z,3.34
2023-02-01T07:32:44.541Z,3.35
2023-02-01T07:35:11.085Z,3.36
2023-02-01T07:37:37.575Z,3.27
2023-02-01T07:40:04.328Z,3.45
2023-02-01T07:42:31.197Z,3.64
2023-02-01T07:44:59.749Z,3.76
2023-02-01T07:47:29.700Z,3.73
2023-02-01T07:49:56.253Z,3.77
2023-02-01T07:52:22.691Z,3.51
2023-02-01T07:54:49.123Z,3.54
2023-02-01T07:57:15.566Z,3.68
2023-02-01T08:00:02.293Z,3.55
2023-02-01T08:02:39.050Z,3.65
2023-02-01T08:05:06.613Z,3.41
2023-02-01T08:07:33.050Z,3.56
2023-02-01T08:10:00.901Z,3.38
2023-02-01T08:12:27.989Z,3.51
2023-02-01T08:14:54.790Z,3.74
2023-02-01T08:17:21.354Z,3.58
2023-02-01T08:19:47.817Z,3.49
2023-02-01T08:22:14.238Z,3.63
2023-02-01T08:24:42.083Z,3.60
2023-02-01T08:27:08.541Z,3.68
2023-02-01T08:29:35.494Z,3.56
2023-02-01T08:32:02.010Z,3.49
2023-02-01T08:34:28.852Z,3.57
2023-02-01T08:36:58.832Z,3.69
2023-02-01T08:39:26.365Z,3.63
2023-02-01T08:42:11.442Z,3.51
2023-02-01T08:44:37.928Z,3.53
2023-02-01T08:47:04.458Z,3.66
2023-02-01T08:49:30.975Z,3.69
2023-02-01T08:52:00.958Z,3.61
2023-02-01T08:54:30.348Z,3.74
2023-02-01T08:56:57.401Z,3.69
2023-02-01T08:59:25.154Z,3.67
2023-02-01T09:01:53.125Z,3.79
2023-02-01T09:04:19.786Z,3.75
2023-02-01T09:06:46.337Z,3.65
2023-02-01T09:09:13.262Z,3.74
2023-02-01T09:11:39.867Z,3.79
2023-02-01T09:14:07.115Z,3.68
2023-02-01T09:16:33.578Z,3.82
2023-02-01T09:19:23.929Z,4.01
2023-02-01T09:21:46.480Z,3.98
2023-02-01T09:24:13.714Z,3.69
2023-02-01T09:26:40.498Z,3.96
2023-02-01T09:29:13.192Z,3.92
2023-02-01T09:31:44.096Z,3.73
2023-02-01T09:34:16.425Z,3.79
2023-02-01T09:36:42.864Z,4.02
2023-02-01T09:39:09.316Z,3.99
2023-02-01T09:41:55.027Z,3.97
2023-02-01T09:44:44.280Z,4.02
2023-02-01T09:47:19.452Z,3.79
2023-02-01T09:50:06.169Z,3.78
2023-02-01T09:52:39.444Z,3.88
2023-02-01T09:55:12.307Z,3.96
2023-02-01T09:57:42.754Z,3.93
2023-02-01T10:00:16.421Z,4.09
2023-02-01T10:02:43.665Z,3.91
2023-02-01T10:05:14.572Z,3.84
2023-02-01T10:08:05.899Z,3.85
2023-02-01T10:10:45.039Z,4.14
2023-02-01T10:13:11.455Z,3.97
2023-02-01T10:15:38.102Z,3.85
2023-02-01T10:18:23.177Z,4.10
2023-02-01T10:20:49.639Z,4.11
2023-02-01T10:23:34.362Z,4.25
2023-02-01T10:26:06.031Z,4.12
2023-02-01T10:28:35.283Z,4.15
2023-02-01T10:31:02.835Z,4.09
2023-02-01T10:33:42.671Z,4.27
2023-02-01T10:36:09.133Z,4.07
2023-02-01T10:38:35.645Z,4.14
2023-02-01T10:41:03.915Z,4.32
2023-02-01T10:43:31.026Z,4.30
2023-02-01T10:45:57.719Z,4.33
2023-02-01T10:48:24.375Z,4.31
2023-02-01T10:50:54.562Z,4.25
2023-02-01T10:53:25.277Z,4.45
2023-02-01T10:55:55.374Z,4.33
2023-02-01T10:58:29.998Z,4.47
2023-02-01T11:01:07.813Z,4.57
2023-02-01T11:03:45.083Z,4.34
2023-02-01T11:06:14.620Z,4.35
2023-02-01T11:08:49.013Z,4.33
2023-02-01T11:11:15.712Z,4.48
2023-02-01T11:13:42.838Z,4.35
2023-02-01T11:16:13.057Z,4.50
2023-02-01T11:18:39.534Z,4.33
2023-02-01T11:21:07.217Z,4.44
2023-02-01T11:23:34.630Z,4.27
2023-02-01T11:26:02.749Z,4.33
2023-02-01T11:28:33.426Z,4.26
2023-02-01T11:31:01.746Z,4.28
2023-02-01T11:33:31.399Z,4.37
2023-02-01T11:35:59.382Z,4.27
2023-02-01T11:38:33.667Z,4.25
2023-02-01T11:41:21.927Z,4.22
2023-02-01T11:43:52.708Z,4.49
2023-02-01T11:46:26.101Z,4.41
2023-02-01T11:48:53.728Z,4.41
2023-02-01T11:51:25.950Z,4.35
2023-02-01T11:53:55.476Z,4.38
2023-02-01T11:56:24.921Z,4.49
2023-02-01T11:58:51.476Z,4.35
2023-02-01T12:01:23.978Z,4.47
2023-02-01T12:03:57.582Z,4.63
2023-02-01T12:06:43.093Z,4.57
2023-02-01T12:09:17.270Z,4.45
2023-02-01T12:11:43.720Z,4.20
2023-02-01T12:14:10.202Z,4.54
2023-02-01T12:16:51.743Z,4.71
2023-02-01T12:19:33.611Z,4.40
2023-02-01T12:22:00.031Z,4.44
2023-02-01T12:24:38.796Z,4.44
2023-02-01T12:27:08.265Z,4.35
2023-02-01T12:29:49.388Z,4.27
2023-02-01T12:32:37.179Z,4.56
2023-02-01T12:35:16.035Z,4.43
2023-02-01T12:38:01.408Z,4.44
2023-02-01T12:40:37.156Z,4.54
2023-02-01T12:43:06.758Z,4.43
2023-02-01T12:45:35.806Z,4.36
2023-02-01T12:48:19.572Z,4.27
2023-02-01T12:50:50.116Z,4.61
2023-02-01T12:53:25.472Z,4.42
2023-02-01T12:55:54.569Z,4.49
2023-02-01T12:58:36.276Z,4.43
2023-02-01T13:01:21.590Z,4.22
2023-02-01T13:04:08.640Z,4.34
2023-02-01T13:06:44.293Z,4.59
2023-02-01T13:09:21.704Z,4.79
2023-02-01T13:11:48.946Z,4.33
2023-02-01T13:14:26.530Z,4.44
2023-02-01T13:16:57.533Z,4.23
2023-02-01T13:19:28.536Z,4.27
2023-02-01T13:21:57.702Z,4.14
2023-02-01T13:24:24.112Z,4.33
2023-02-01T13:26:53.924Z,4.19
2023-02-01T13:29:21.953Z,4.30
2023-02-01T13:32:07.386Z,4.21
2023-02-01T13:34:33.810Z,4.34
2023-02-01T13:37:06.176Z,4.24
2023-02-01T13:39:44.170Z,4.40
2023-02-01T13:42:22.455Z,4.29
2023-02-01T13:44:51.465Z,4.39
2023-02-01T13:47:32.552Z,4.44
2023-02-01T13:50:01.623Z,4.25
2023-02-01T13:52:35.487Z,4.28
2023-02-01T13:55:04.495Z,4.41
2023-02-01T13:57:42.125Z,4.40
2023-02-01T14:00:23.654Z,4.36
2023-02-01T14:03:07.522Z,4.28
2023-02-01T14:05:35.417Z,4.20
2023-02-01T14:08:08.144Z,4.29
2023-02-01T14:10:58.261Z,4.33
2023-02-01T14:13:34.007Z,4.39
2023-02-01T14:16:03.835Z,4.38
2023-02-01T14:18:36.906Z,4.45
2023-02-01T14:21:22.130Z,4.58
2023-02-01T14:23:58.059Z,4.24
2023-02-01T14:26:43.047Z,4.38
2023-02-01T14:29:28.249Z,4.38
2023-02-01T14:32:00.667Z,4.30
2023-02-01T14:34:36.539Z,4.33
2023-02-01T14:37:04.808Z,4.43
2023-02-01T14:40:02.111Z,4.49
2023-02-01T14:42:34.642Z,4.22
2023-02-01T14:45:27.733Z,4.56
2023-02-01T14:47:55.548Z,4.43
2023-02-01T14:50:33.323Z,4.36
2023-02-01T14:53:15.741Z,4.46
2023-02-01T14:55:50.207Z,4.56
2023-02-01T14:58:25.401Z,4.56
2023-02-01T15:00:54.033Z,4.40
2023-02-01T15:03:31.424Z,4.28
2023-02-01T15:05:59.380Z,4.31
2023-02-01T15:08:31.212Z,4.36
2023-02-01T15:10:59.852Z,4.35
2023-02-01T15:13:27.186Z,4.30
2023-02-01T15:16:04.385Z,4.30
2023-02-01T15:18:31.327Z,4.35
2023-02-01T15:21:06.968Z,4.35
2023-02-01T15:23:49.399Z,4.47
2023-02-01T15:26:25.869Z,4.49
2023-02-01T15:28:52.464Z,4.50
2023-02-01T15:31:32.346Z,4.45
2023-02-01T15:33:59.008Z,4.37
2023-02-01T15:36:28.542Z,4.29
2023-02-01T15:39:18.979Z,4.39
2023-02-01T15:41:47.857Z,4.44
2023-02-01T15:44:23.307Z,4.54
2023-02-01T15:46:50.753Z,4.40
2023-02-01T15:49:20.983Z,4.65
2023-02-01T15:51:48.035Z,4.44
2023-02-01T15:54:22.072Z,4.51
2023-02-01T15:56:54.119Z,4.39
2023-02-01T15:59:23.147Z,4.33
2023-02-01T16:01:49.824Z,4.40
2023-02-01T16:04:27.296Z,4.35
2023-02-01T16:06:58.354Z,4.47
2023-02-01T16:09:28.202Z,4.25
2023-02-01T16:11:58.085Z,4.29
2023-02-01T16:14:24.989Z,4.24
2023-02-01T16:16:52.719Z,4.32
2023-02-01T16:19:19.350Z,4.32
2023-02-01T16:21:46.497Z,4.25
2023-02-01T16:24:13.030Z,4.31
2023-02-01T16:26:40.232Z,4.28
2023-02-01T16:29:09.754Z,4.27
2023-02-01T16:31:38.894Z,4.20
2023-02-01T16:34:06.822Z,4.38
2023-02-01T16:36:33.846Z,4.15
2023-02-01T16:39:00.633Z,4.20
2023-02-01T16:41:28.877Z,4.22
2023-02-01T16:43:56.308Z,4.08
2023-02-01T16:46:25.902Z,3.81
2023-02-01T16:48:53.932Z,3.95
2023-02-01T16:51:20.540Z,4.12
2023-02-01T16:53:54.217Z,4.10
2023-02-01T16:56:26.414Z,4.12
2023-02-01T16:58:54.214Z,4.12
2023-02-01T17:01:21.579Z,4.00
2023-02-01T17:03:48.189Z,3.93
2023-02-01T17:06:17.386Z,4.15
2023-02-01T17:08:45.319Z,4.04
2023-02-01T17:11:13.904Z,3.87
2023-02-01T17:13:42.095Z,3.98
2023-02-01T17:16:17.944Z,4.07
2023-02-01T17:18:45.162Z,4.14
2023-02-01T17:21:11.620Z,4.06
2023-02-01T17:23:38.494Z,3.98
2023-02-01T17:26:05.230Z,3.94
2023-02-01T17:28:31.648Z,4.10
2023-02-01T17:30:58.213Z,4.19
2023-02-01T17:33:27.177Z,4.14
2023-02-01T17:35:54.933Z,4.10
2023-02-01T17:38:21.852Z,4.25
2023-02-01T17:40:48.376Z,4.23
2023-02-01T17:43:15.858Z,4.28
2023-02-01T17:45:51.510Z,4.16
2023-02-01T17:48:21.660Z,4.22
2023-02-01T17:50:50.199Z,4.33
2023-02-01T17:53:16.930Z,4.20
2023-02-01T17:55:44.809Z,4.16
2023-02-01T17:58:15.396Z,4.14
2023-02-01T18:00:42.637Z,4.27
2023-02-01T18:03:30.102Z,4.19
2023-02-01T18:05:57.630Z,4.42
2023-02-01T18:08:25.489Z,4.37
2023-02-01T18:10:54.273Z,4.34
2023-02-01T18:13:21.342Z,4.42
2023-02-01T18:15:48.218Z,4.41
2023-02-01T18:18:14.651Z,4.39
2023-02-01T18:20:43.508Z,4.15
2023-02-01T18:23:14.203Z,4.14
2023-02-01T18:25:40.805Z,4.10
2023-02-01T18:28:07.267Z,4.22
2023-02-01T18:30:34.262Z,4.38
2023-02-01T18:33:00.880Z,4.30
2023-02-01T18:35:28.437Z,4.27
2023-02-01T18:37:56.496Z,4.45
2023-02-01T18:40:24.415Z,4.38
2023-02-01T18:42:50.956Z,4.30
2023-02-01T18:45:27.027Z,4.30
2023-02-01T18:47:53.805Z,4.17
2023-02-01T18:50:20.582Z,4.25
2023-02-01T18:52:47.277Z,4.13
2023-02-01T18:55:13.981Z,4.14
2023-02-01T18:57:40.842Z,4.07
2023-02-01T19:00:10.228Z,3.98
2023-02-01T19:02:36.902Z,4.16
2023-02-01T19:05:03.499Z,4.10
2023-02-01T19:07:30.043Z,3.78
2023-02-01T19:09:56.505Z,3.74
2023-02-01T19:12:22.989Z,3.83
2023-02-01T19:14:49.392Z,3.91
2023-02-01T19:17:15.822Z,3.78
2023-02-01T19:19:44.052Z,3.76
2023-02-01T19:22:10.772Z,3.82
2023-02-01T19:24:38.831Z,3.82
2023-02-01T19:27:05.439Z,3.82
2023-02-01T19:29:31.933Z,3.77
2023-02-01T19:31:58.575Z,3.76
2023-02-01T19:34:25.024Z,3.95
2023-02-01T19:36:52.553Z,3.86
2023-02-01T19:39:20.434Z,3.83
2023-02-01T19:41:46.817Z,4.04
2023-02-01T19:44:14.546Z,4.08
2023-02-01T19:46:41.002Z,4.07
2023-02-01T19:49:11.921Z,3.83
2023-02-01T19:51:40.839Z,3.93
2023-02-01T19:54:08.845Z,3.96
2023-02-01T19:56:35.705Z,3.84
2023-02-01T19:59:02.626Z,4.07
2023-02-01T20:01:28.286Z,3.91
2023-02-01T20:04:01.505Z,3.93
2023-02-01T20:06:29.434Z,3.93
2023-02-01T20:08:56.646Z,3.98
2023-02-01T20:11:25.256Z,3.89
2023-02-01T20:13:52.593Z,4.04
2023-02-01T20:16:19.684Z,4.08
2023-02-01T20:18:46.319Z,4.00
2023-02-01T20:21:13.036Z,3.86
2023-02-01T20:23:39.504Z,3.92
2023-02-01T20:26:07.941Z,4.03
2023-02-01T20:28:34.645Z,4.05
2023-02-01T20:31:01.568Z,3.92
2023-02-01T20:33:28.934Z,3.93
2023-02-01T20:35:55.460Z,3.77
2023-02-01T20:38:22.536Z,3.68
2023-02-01T20:40:49.049Z,3.78
2023-02-01T20:43:15.501Z,3.62
2023-02-01T20:45:42.419Z,3.90
2023-02-01T20:48:09.583Z,3.83
2023-02-01T20:50:36.142Z,3.72
2023-02-01T20:53:02.715Z,3.77
2023-02-01T20:55:29.170Z,3.69
2023-02-01T20:57:55.625Z,3.72
2023-02-01T21:00:24.938Z,3.89
2023-02-01T21:02:51.362Z,3.99
2023-02-01T21:05:17.852Z,3.84
2023-02-01T21:07:44.313Z,3.88
2023-02-01T21:10:11.489Z,3.89
2023-02-01T21:12:37.893Z,4.10
2023-02-01T21:15:05.552Z,4.22
2023-02-01T21:17:32.392Z,4.03
2023-02-01T21:19:59.515Z,4.19
2023-02-01T21:22:25.897Z,4.26
2023-02-01T21:24:52.273Z,4.19
2023-02-01T21:27:18.695Z,4.44
2023-02-01T21:29:45.186Z,4.23
2023-02-01T21:32:11.748Z,3.95
2023-02-01T21:34:38.156Z,3.99
2023-02-01T21:37:04.559Z,4.10
2023-02-01T21:39:31.091Z,3.94
2023-02-01T21:42:18.050Z,4.01
2023-02-01T21:44:48.509Z,4.29
2023-02-01T21:47:18.933Z,4.14
2023-02-01T21:49:48.493Z,4.22
2023-02-01T21:52:15.990Z,4.25
2023-02-01T21:54:42.597Z,4.13
2023-02-01T21:57:12.406Z,4.22
2023-02-01T21:59:40.305Z,4.37
2023-02-01T22:02:07.650Z,4.39
2023-02-01T22:04:34.094Z,4.14
2023-02-01T22:07:00.634Z,4.24
2023-02-01T22:09:27.112Z,4.28
2023-02-01T22:11:55.079Z,4.15
2023-02-01T22:14:22.066Z,4.06
2023-02-01T22:16:48.536Z,4.25
2023-02-01T22:19:15.610Z,4.01
2023-02-01T22:21:43.223Z,4.14
2023-02-01T22:24:10.881Z,4.05
2023-02-01T22:26:37.363Z,4.14
2023-02-01T22:29:03.803Z,4.25
2023-02-01T22:31:30.466Z,4.20
2023-02-01T22:33:56.941Z,4.01
2023-02-01T22:36:25.116Z,4.24
2023-02-01T22:38:52.473Z,4.22
2023-02-01T22:41:19.580Z,4.44
2023-02-01T22:43:46.672Z,4.35
2023-02-01T22:46:21.504Z,4.30
2023-02-01T22:48:48.438Z,4.36
2023-02-01T22:51:19.474Z,4.22
2023-02-01T22:53:45.963Z,4.25
2023-02-01T22:56:13.484Z,4.38
2023-02-01T22:58:40.269Z,4.40
2023-02-01T23:01:10.331Z,4.51
2023-02-01T23:03:37.268Z,4.42
2023-02-01T23:06:04.251Z,4.23
2023-02-01T23:08:30.859Z,4.49
2023-02-01T23:11:01.157Z,4.44
2023-02-01T23:13:27.636Z,4.48
2023-02-01T23:15:54.074Z,4.35
2023-02-01T23:18:20.547Z,4.38
2023-02-01T23:20:46.995Z,4.14
2023-02-01T23:23:13.429Z,4.25
2023-02-01T23:25:39.860Z,4.26
2023-02-01T23:28:07.931Z,4.22
2023-02-01T23:30:34.385Z,4.19
2023-02-01T23:33:00.889Z,4.04
2023-02-01T23:35:27.305Z,4.20
2023-02-01T23:37:53.705Z,4.29
2023-02-01T23:40:20.139Z,4.07
2023-02-01T23:43:06.491Z,4.16
2023-02-01T23:45:32.907Z,3.93
2023-02-01T23:47:59.267Z,4.08
2023-02-01T23:50:25.688Z,3.85
2023-02-01T23:52:52.068Z,4.05
2023-02-01T23:55:18.476Z,3.83
2023-02-01T23:57:44.914Z,3.92
